This is the latest recevied weather packets stored in our database for station/object KE5WTH-14. If no packets are shown the sender has not sent any weather packets the latest 1 day(s).
| Time | Temp. | Humidity | Pressure | Rain* | Wind** | Luminosity | Snow |
|---|---|---|---|---|---|---|---|
| 1778086294 | 12.22° C | 86% | 1016 hPa | 0.51 mm | - | 56 W/m² | - |
| 1778086174 | 12.22° C | 86% | 1015.8 hPa | 0.76 mm | - | 55 W/m² | - |
| 1778085014 | 12.22° C | 86% | 1015.8 hPa | 1.02 mm | - | 49 W/m² | - |
| 1778084953 | 12.22° C | 87% | 1015.7 hPa | 1.02 mm | - | 51 W/m² | - |
| 1778084834 | 12.22° C | 87% | 1015.5 hPa | 1.02 mm | - | 55 W/m² | - |
| 1778084414 | 12.22° C | 86% | 1014 hPa | 1.02 mm | - | 211 W/m² | - |
| 1778084353 | 12.22° C | 86% | 1013.9 hPa | 1.02 mm | - | 208 W/m² | - |
| 1778084233 | 12.22° C | 87% | 1013.8 hPa | 1.02 mm | - | 193 W/m² | - |
| 1778084114 | 12.22° C | 87% | 1013.8 hPa | 1.02 mm | - | 190 W/m² | - |
| 1778084053 | 12.22° C | 87% | 1013.9 hPa | 1.02 mm | - | 190 W/m² | - |
| 1778083933 | 12.22° C | 88% | 1014.2 hPa | 1.02 mm | - | 192 W/m² | - |
| 1778083814 | 12.22° C | 88% | 1014.3 hPa | 1.02 mm | - | 204 W/m² | - |
| 1778083763 | 12.22° C | 88% | 1014.2 hPa | 1.02 mm | - | 204 W/m² | - |
| 1778083393 | 12.22° C | 88% | 1014.3 hPa | 1.02 mm | - | 288 W/m² | - |
| 1778083332 | 12.22° C | 88% | 1014.3 hPa | 1.02 mm | - | 299 W/m² | - |
| 1778083274 | 12.22° C | 88% | 1014.2 hPa | 1.02 mm | - | 295 W/m² | - |
| 1778082906 | 12.22° C | 87% | 1014.7 hPa | 1.02 mm | - | 280 W/m² | - |
| 1778082424 | 11.67° C | 86% | 1015.5 hPa | 0.76 mm | - | 116 W/m² | - |
| 1778082196 | 11.67° C | 85% | 1016.1 hPa | 0.76 mm | - | 46 W/m² | - |
| 1778082167 | 11.67° C | 85% | 1016 hPa | 0.51 mm | - | 42 W/m² | - |
| 1778081946 | 11.67° C | 85% | 1015.8 hPa | 0.51 mm | - | 48 W/m² | - |
| 1778081916 | 11.67° C | 85% | 1015.8 hPa | 0.51 mm | - | 65 W/m² | - |
| 1778081563 | 11.67° C | 84% | 1015.8 hPa | 0.25 mm | - | 42 W/m² | - |
| 1778081440 | 11.67° C | 84% | 1015.7 hPa | 0 mm | - | 42 W/m² | - |
| 1778081377 | 11.67° C | 83% | 1015.6 hPa | 0 mm | - | 46 W/m² | - |
* Rain latest hour (hover to see other rain measurements)
** Current wind speed in m/s (hover to see current wind gust speed)